Terminal Aerodrome Forecast
Issued by NWS Quad Cities IA IL

Home | Current Version | Previous Version | Text Only | Print | Product List | Glossary On
Versions: 1 2 3 4 5 6 7 8 9 10 11 12 13 14 15 16 17 18 19 20 21 22 23 24
000
FTUS43 KDVN 241100
TAFMLI
TAF
KMLI 241130Z 2412/2512 29020G30KT 2SM -SN BR OVC008
      TEMPO 2412/2415 1SM -SN BR BKN005
     FM241700 28020G30KT 4SM -SN BR OVC015
     FM242200 27015G25KT 6SM -SHSN OVC018
     FM250000 27013KT P6SM OVC025=

USA.gov is the U.S. government's official web portal to all federal, state and local government web resources and services.